sensor_id;sensor_type;location;lat;lon;timestamp;temperature;humidity
46720;DHT22;32452;51.382;-0.002;2023-04-25T00:01:54;7.80;97.60
46720;DHT22;32452;51.382;-0.002;2023-04-25T00:04:49;7.80;97.50
46720;DHT22;32452;51.382;-0.002;2023-04-25T00:07:38;7.80;97.50
46720;DHT22;32452;51.382;-0.002;2023-04-25T00:10:24;7.70;97.40
46720;DHT22;32452;51.382;-0.002;2023-04-25T00:13:11;7.70;97.50
46720;DHT22;32452;51.382;-0.002;2023-04-25T00:16:02;7.70;97.50
46720;DHT22;32452;51.382;-0.002;2023-04-25T00:18:52;7.70;97.50
46720;DHT22;32452;51.382;-0.002;2023-04-25T00:21:39;7.60;97.50
46720;DHT22;32452;51.382;-0.002;2023-04-25T00:24:26;7.60;97.50
46720;DHT22;32452;51.382;-0.002;2023-04-25T00:27:12;7.60;97.50
46720;DHT22;32452;51.382;-0.002;2023-04-25T00:30:00;7.60;97.40
46720;DHT22;32452;51.382;-0.002;2023-04-25T00:32:45;7.50;97.30
46720;DHT22;32452;51.382;-0.002;2023-04-25T00:35:32;7.50;97.20
46720;DHT22;32452;51.382;-0.002;2023-04-25T00:38:17;7.40;97.20
46720;DHT22;32452;51.382;-0.002;2023-04-25T00:41:03;7.40;97.20
46720;DHT22;32452;51.382;-0.002;2023-04-25T00:43:50;7.30;97.10
46720;DHT22;32452;51.382;-0.002;2023-04-25T00:46:36;7.30;97.10
46720;DHT22;32452;51.382;-0.002;2023-04-25T00:49:22;7.20;97.10
46720;DHT22;32452;51.382;-0.002;2023-04-25T00:52:08;7.10;97.10
46720;DHT22;32452;51.382;-0.002;2023-04-25T00:54:53;7.00;97.20
46720;DHT22;32452;51.382;-0.002;2023-04-25T00:57:39;6.90;97.10
46720;DHT22;32452;51.382;-0.002;2023-04-25T01:00:25;6.80;97.10
46720;DHT22;32452;51.382;-0.002;2023-04-25T01:03:11;6.80;97.10
46720;DHT22;32452;51.382;-0.002;2023-04-25T01:05:58;6.70;97.40
46720;DHT22;32452;51.382;-0.002;2023-04-25T01:08:44;6.60;97.10
46720;DHT22;32452;51.382;-0.002;2023-04-25T01:11:29;6.60;97.10
46720;DHT22;32452;51.382;-0.002;2023-04-25T01:14:15;6.50;97.10
46720;DHT22;32452;51.382;-0.002;2023-04-25T01:17:00;6.40;97.10
46720;DHT22;32452;51.382;-0.002;2023-04-25T01:19:46;6.40;97.10
46720;DHT22;32452;51.382;-0.002;2023-04-25T01:22:34;6.30;97.10
46720;DHT22;32452;51.382;-0.002;2023-04-25T01:25:19;6.30;97.10
46720;DHT22;32452;51.382;-0.002;2023-04-25T01:28:05;6.20;97.10
46720;DHT22;32452;51.382;-0.002;2023-04-25T01:30:51;6.20;97.20
46720;DHT22;32452;51.382;-0.002;2023-04-25T01:33:37;6.20;97.20
46720;DHT22;32452;51.382;-0.002;2023-04-25T01:36:22;6.10;97.20
46720;DHT22;32452;51.382;-0.002;2023-04-25T01:39:08;6.10;97.20
46720;DHT22;32452;51.382;-0.002;2023-04-25T01:41:54;6.00;97.20
46720;DHT22;32452;51.382;-0.002;2023-04-25T01:44:41;6.00;97.20
46720;DHT22;32452;51.382;-0.002;2023-04-25T01:47:27;5.90;97.20
46720;DHT22;32452;51.382;-0.002;2023-04-25T01:50:17;5.90;97.20
46720;DHT22;32452;51.382;-0.002;2023-04-25T01:53:02;5.80;97.30
46720;DHT22;32452;51.382;-0.002;2023-04-25T01:55:49;5.80;97.30
46720;DHT22;32452;51.382;-0.002;2023-04-25T01:58:35;5.80;97.40
46720;DHT22;32452;51.382;-0.002;2023-04-25T02:01:20;5.70;97.40
46720;DHT22;32452;51.382;-0.002;2023-04-25T02:04:05;5.70;97.40
46720;DHT22;32452;51.382;-0.002;2023-04-25T02:06:52;5.70;97.50
46720;DHT22;32452;51.382;-0.002;2023-04-25T02:09:37;5.60;97.40
46720;DHT22;32452;51.382;-0.002;2023-04-25T02:12:23;5.60;97.40
46720;DHT22;32452;51.382;-0.002;2023-04-25T02:15:08;5.60;97.40
46720;DHT22;32452;51.382;-0.002;2023-04-25T02:17:54;5.60;97.40
46720;DHT22;32452;51.382;-0.002;2023-04-25T02:20:39;5.50;97.30
46720;DHT22;32452;51.382;-0.002;2023-04-25T02:23:25;5.50;97.40
46720;DHT22;32452;51.382;-0.002;2023-04-25T02:26:11;5.50;97.40
46720;DHT22;32452;51.382;-0.002;2023-04-25T02:28:57;5.50;97.40
46720;DHT22;32452;51.382;-0.002;2023-04-25T02:31:42;5.40;97.40
46720;DHT22;32452;51.382;-0.002;2023-04-25T02:34:28;5.40;97.30
46720;DHT22;32452;51.382;-0.002;2023-04-25T02:37:13;5.40;97.30
46720;DHT22;32452;51.382;-0.002;2023-04-25T02:39:59;5.40;97.30
46720;DHT22;32452;51.382;-0.002;2023-04-25T02:42:45;5.30;97.30
46720;DHT22;32452;51.382;-0.002;2023-04-25T02:45:33;5.30;97.30
46720;DHT22;32452;51.382;-0.002;2023-04-25T02:48:19;5.30;97.40
46720;DHT22;32452;51.382;-0.002;2023-04-25T02:51:04;5.20;97.30
46720;DHT22;32452;51.382;-0.002;2023-04-25T02:53:50;5.20;97.30
46720;DHT22;32452;51.382;-0.002;2023-04-25T02:56:36;5.10;97.30
46720;DHT22;32452;51.382;-0.002;2023-04-25T02:59:21;5.10;97.30
46720;DHT22;32452;51.382;-0.002;2023-04-25T03:02:07;5.10;97.30
46720;DHT22;32452;51.382;-0.002;2023-04-25T03:04:52;5.10;97.30
46720;DHT22;32452;51.382;-0.002;2023-04-25T03:07:39;5.10;97.30
46720;DHT22;32452;51.382;-0.002;2023-04-25T03:10:25;5.00;97.30
46720;DHT22;32452;51.382;-0.002;2023-04-25T03:13:11;5.00;97.30
46720;DHT22;32452;51.382;-0.002;2023-04-25T03:15:56;5.00;97.30
46720;DHT22;32452;51.382;-0.002;2023-04-25T03:18:41;5.00;97.30
46720;DHT22;32452;51.382;-0.002;2023-04-25T03:21:27;4.90;97.30
46720;DHT22;32452;51.382;-0.002;2023-04-25T03:24:14;4.90;97.30
46720;DHT22;32452;51.382;-0.002;2023-04-25T03:27:00;4.90;97.30
46720;DHT22;32452;51.382;-0.002;2023-04-25T03:29:45;4.80;97.30
46720;DHT22;32452;51.382;-0.002;2023-04-25T03:32:31;4.80;97.30
46720;DHT22;32452;51.382;-0.002;2023-04-25T03:35:16;4.80;97.30
46720;DHT22;32452;51.382;-0.002;2023-04-25T03:38:02;4.80;97.30
46720;DHT22;32452;51.382;-0.002;2023-04-25T03:40:47;4.70;97.30
46720;DHT22;32452;51.382;-0.002;2023-04-25T03:43:33;4.70;97.40
46720;DHT22;32452;51.382;-0.002;2023-04-25T03:46:19;4.70;97.50
46720;DHT22;32452;51.382;-0.002;2023-04-25T03:49:05;4.60;97.50
46720;DHT22;32452;51.382;-0.002;2023-04-25T03:51:50;4.60;97.50
46720;DHT22;32452;51.382;-0.002;2023-04-25T03:54:36;4.60;97.60
46720;DHT22;32452;51.382;-0.002;2023-04-25T03:57:21;4.60;97.60
46720;DHT22;32452;51.382;-0.002;2023-04-25T04:00:07;4.60;97.60
46720;DHT22;32452;51.382;-0.002;2023-04-25T04:02:53;4.50;97.60
46720;DHT22;32452;51.382;-0.002;2023-04-25T04:05:39;4.50;97.70
46720;DHT22;32452;51.382;-0.002;2023-04-25T04:08:25;4.50;97.70
46720;DHT22;32452;51.382;-0.002;2023-04-25T04:11:11;4.50;97.80
46720;DHT22;32452;51.382;-0.002;2023-04-25T04:13:57;4.40;97.80
46720;DHT22;32452;51.382;-0.002;2023-04-25T04:16:42;4.40;97.70
46720;DHT22;32452;51.382;-0.002;2023-04-25T04:19:28;4.40;97.70
46720;DHT22;32452;51.382;-0.002;2023-04-25T04:22:13;4.40;97.70
46720;DHT22;32452;51.382;-0.002;2023-04-25T04:24:59;4.40;97.80
46720;DHT22;32452;51.382;-0.002;2023-04-25T04:27:45;4.40;97.80
46720;DHT22;32452;51.382;-0.002;2023-04-25T04:30:31;4.40;97.80
46720;DHT22;32452;51.382;-0.002;2023-04-25T04:33:17;4.30;97.70
46720;DHT22;32452;51.382;-0.002;2023-04-25T04:36:06;4.30;97.80
46720;DHT22;32452;51.382;-0.002;2023-04-25T04:38:52;4.30;97.90
46720;DHT22;32452;51.382;-0.002;2023-04-25T04:41:38;4.30;97.90
46720;DHT22;32452;51.382;-0.002;2023-04-25T04:44:24;4.30;97.90
46720;DHT22;32452;51.382;-0.002;2023-04-25T04:47:10;4.20;98.00
46720;DHT22;32452;51.382;-0.002;2023-04-25T04:49:55;4.20;98.10
46720;DHT22;32452;51.382;-0.002;2023-04-25T04:52:41;4.20;98.10
46720;DHT22;32452;51.382;-0.002;2023-04-25T04:55:27;4.20;98.10
46720;DHT22;32452;51.382;-0.002;2023-04-25T04:58:13;4.20;98.10
46720;DHT22;32452;51.382;-0.002;2023-04-25T05:01:01;4.20;98.20
46720;DHT22;32452;51.382;-0.002;2023-04-25T05:03:46;4.20;98.20
46720;DHT22;32452;51.382;-0.002;2023-04-25T05:06:32;4.20;98.20
46720;DHT22;32452;51.382;-0.002;2023-04-25T05:09:18;4.20;98.30
46720;DHT22;32452;51.382;-0.002;2023-04-25T05:12:04;4.20;98.30
46720;DHT22;32452;51.382;-0.002;2023-04-25T05:14:49;4.20;98.30
46720;DHT22;32452;51.382;-0.002;2023-04-25T05:17:35;4.30;98.40
46720;DHT22;32452;51.382;-0.002;2023-04-25T05:20:21;4.30;98.40
46720;DHT22;32452;51.382;-0.002;2023-04-25T05:23:06;4.30;98.30
46720;DHT22;32452;51.382;-0.002;2023-04-25T05:25:52;4.40;98.30
46720;DHT22;32452;51.382;-0.002;2023-04-25T05:28:37;4.40;98.30
46720;DHT22;32452;51.382;-0.002;2023-04-25T05:31:23;4.40;98.30
46720;DHT22;32452;51.382;-0.002;2023-04-25T05:34:09;4.40;98.30
46720;DHT22;32452;51.382;-0.002;2023-04-25T05:36:54;4.40;98.30
46720;DHT22;32452;51.382;-0.002;2023-04-25T05:39:40;4.40;98.40
46720;DHT22;32452;51.382;-0.002;2023-04-25T05:42:26;4.50;98.50
46720;DHT22;32452;51.382;-0.002;2023-04-25T05:45:12;4.50;98.50
46720;DHT22;32452;51.382;-0.002;2023-04-25T05:47:58;4.60;98.50
46720;DHT22;32452;51.382;-0.002;2023-04-25T05:50:43;4.60;98.50
46720;DHT22;32452;51.382;-0.002;2023-04-25T05:53:29;4.70;98.50
46720;DHT22;32452;51.382;-0.002;2023-04-25T05:56:14;4.80;98.80
46720;DHT22;32452;51.382;-0.002;2023-04-25T05:59:00;4.80;98.50
46720;DHT22;32452;51.382;-0.002;2023-04-25T06:01:46;4.90;98.50
46720;DHT22;32452;51.382;-0.002;2023-04-25T06:04:32;5.20;99.20
46720;DHT22;32452;51.382;-0.002;2023-04-25T06:07:19;6.10;99.10
46720;DHT22;32452;51.382;-0.002;2023-04-25T06:10:06;7.10;98.00
46720;DHT22;32452;51.382;-0.002;2023-04-25T06:12:51;8.10;96.50
46720;DHT22;32452;51.382;-0.002;2023-04-25T06:15:37;9.10;94.80
46720;DHT22;32452;51.382;-0.002;2023-04-25T06:18:23;9.90;92.80
46720;DHT22;32452;51.382;-0.002;2023-04-25T06:21:08;10.70;91.20
46720;DHT22;32452;51.382;-0.002;2023-04-25T06:23:54;11.30;89.10
46720;DHT22;32452;51.382;-0.002;2023-04-25T06:26:39;11.70;85.40
46720;DHT22;32452;51.382;-0.002;2023-04-25T06:29:25;12.10;82.50
46720;DHT22;32452;51.382;-0.002;2023-04-25T06:32:11;12.50;80.30
46720;DHT22;32452;51.382;-0.002;2023-04-25T06:34:56;12.70;78.00
46720;DHT22;32452;51.382;-0.002;2023-04-25T06:37:41;13.00;76.40
46720;DHT22;32452;51.382;-0.002;2023-04-25T06:40:27;13.20;74.90
46720;DHT22;32452;51.382;-0.002;2023-04-25T06:43:13;13.60;73.60
46720;DHT22;32452;51.382;-0.002;2023-04-25T06:45:59;13.90;72.20
46720;DHT22;32452;51.382;-0.002;2023-04-25T06:48:47;14.20;70.40
46720;DHT22;32452;51.382;-0.002;2023-04-25T06:51:33;14.40;68.90
46720;DHT22;32452;51.382;-0.002;2023-04-25T06:54:19;14.70;68.10
46720;DHT22;32452;51.382;-0.002;2023-04-25T06:57:04;15.00;66.60
46720;DHT22;32452;51.382;-0.002;2023-04-25T06:59:50;15.30;65.60
46720;DHT22;32452;51.382;-0.002;2023-04-25T07:02:35;15.60;64.60
46720;DHT22;32452;51.382;-0.002;2023-04-25T07:05:21;15.90;63.30
46720;DHT22;32452;51.382;-0.002;2023-04-25T07:08:07;16.20;62.70
46720;DHT22;32452;51.382;-0.002;2023-04-25T07:10:53;16.40;61.10
46720;DHT22;32452;51.382;-0.002;2023-04-25T07:13:38;16.50;60.10
46720;DHT22;32452;51.382;-0.002;2023-04-25T07:16:24;16.60;59.60
46720;DHT22;32452;51.382;-0.002;2023-04-25T07:19:10;16.70;58.70
46720;DHT22;32452;51.382;-0.002;2023-04-25T07:21:55;16.90;57.70
46720;DHT22;32452;51.382;-0.002;2023-04-25T07:24:41;17.00;57.00
46720;DHT22;32452;51.382;-0.002;2023-04-25T07:27:27;17.30;56.50
46720;DHT22;32452;51.382;-0.002;2023-04-25T07:30:12;17.30;56.00
46720;DHT22;32452;51.382;-0.002;2023-04-25T07:32:58;17.50;55.60
46720;DHT22;32452;51.382;-0.002;2023-04-25T07:35:43;17.60;54.90
46720;DHT22;32452;51.382;-0.002;2023-04-25T07:38:29;17.80;54.10
46720;DHT22;32452;51.382;-0.002;2023-04-25T07:41:14;17.90;53.60
46720;DHT22;32452;51.382;-0.002;2023-04-25T07:44:00;18.00;53.00
46720;DHT22;32452;51.382;-0.002;2023-04-25T07:46:45;18.00;52.40
46720;DHT22;32452;51.382;-0.002;2023-04-25T07:49:31;18.10;52.20
46720;DHT22;32452;51.382;-0.002;2023-04-25T07:52:16;18.10;51.70
46720;DHT22;32452;51.382;-0.002;2023-04-25T07:55:02;18.20;51.60
46720;DHT22;32452;51.382;-0.002;2023-04-25T07:57:48;18.40;51.50
46720;DHT22;32452;51.382;-0.002;2023-04-25T08:00:34;18.60;51.30
46720;DHT22;32452;51.382;-0.002;2023-04-25T08:03:20;18.80;50.50
46720;DHT22;32452;51.382;-0.002;2023-04-25T08:06:11;19.00;49.80
46720;DHT22;32452;51.382;-0.002;2023-04-25T08:09:07;19.10;49.50
46720;DHT22;32452;51.382;-0.002;2023-04-25T08:11:54;19.30;49.00
46720;DHT22;32452;51.382;-0.002;2023-04-25T08:14:39;19.40;48.30
46720;DHT22;32452;51.382;-0.002;2023-04-25T08:17:25;19.30;47.80
46720;DHT22;32452;51.382;-0.002;2023-04-25T08:20:11;19.30;47.80
46720;DHT22;32452;51.382;-0.002;2023-04-25T08:22:57;19.20;47.40
46720;DHT22;32452;51.382;-0.002;2023-04-25T08:25:42;19.10;47.30
46720;DHT22;32452;51.382;-0.002;2023-04-25T08:28:28;19.20;46.90
46720;DHT22;32452;51.382;-0.002;2023-04-25T08:31:13;19.20;46.60
46720;DHT22;32452;51.382;-0.002;2023-04-25T08:33:59;19.40;46.80
46720;DHT22;32452;51.382;-0.002;2023-04-25T08:36:44;19.60;46.50
46720;DHT22;32452;51.382;-0.002;2023-04-25T08:39:30;19.70;46.00
46720;DHT22;32452;51.382;-0.002;2023-04-25T08:42:15;19.90;45.90
46720;DHT22;32452;51.382;-0.002;2023-04-25T08:45:02;20.10;45.00
46720;DHT22;32452;51.382;-0.002;2023-04-25T08:47:51;20.10;44.60
46720;DHT22;32452;51.382;-0.002;2023-04-25T08:50:52;20.10;44.30
46720;DHT22;32452;51.382;-0.002;2023-04-25T08:53:39;20.10;43.60
46720;DHT22;32452;51.382;-0.002;2023-04-25T08:56:28;20.10;43.50
46720;DHT22;32452;51.382;-0.002;2023-04-25T08:59:15;20.20;43.40
46720;DHT22;32452;51.382;-0.002;2023-04-25T09:02:01;20.30;43.20
46720;DHT22;32452;51.382;-0.002;2023-04-25T09:04:46;20.10;43.10
46720;DHT22;32452;51.382;-0.002;2023-04-25T09:07:32;20.10;42.80
46720;DHT22;32452;51.382;-0.002;2023-04-25T09:10:18;19.60;43.10
46720;DHT22;32452;51.382;-0.002;2023-04-25T09:13:10;18.70;43.80
46720;DHT22;32452;51.382;-0.002;2023-04-25T09:15:58;18.10;44.30
46720;DHT22;32452;51.382;-0.002;2023-04-25T09:18:44;18.20;44.80
46720;DHT22;32452;51.382;-0.002;2023-04-25T09:21:34;18.60;44.90
46720;DHT22;32452;51.382;-0.002;2023-04-25T09:27:19;19.50;43.30
46720;DHT22;32452;51.382;-0.002;2023-04-25T09:30:08;19.80;42.70
46720;DHT22;32452;51.382;-0.002;2023-04-25T09:32:56;19.30;42.20
46720;DHT22;32452;51.382;-0.002;2023-04-25T09:35:44;18.80;42.40
46720;DHT22;32452;51.382;-0.002;2023-04-25T09:38:32;18.30;43.30
46720;DHT22;32452;51.382;-0.002;2023-04-25T09:41:23;17.70;43.10
46720;DHT22;32452;51.382;-0.002;2023-04-25T09:44:12;17.80;43.50
46720;DHT22;32452;51.382;-0.002;2023-04-25T09:46:58;17.50;43.40
46720;DHT22;32452;51.382;-0.002;2023-04-25T09:49:44;17.00;44.10
46720;DHT22;32452;51.382;-0.002;2023-04-25T09:52:29;16.30;45.00
46720;DHT22;32452;51.382;-0.002;2023-04-25T09:55:15;15.90;46.20
46720;DHT22;32452;51.382;-0.002;2023-04-25T09:58:05;16.00;46.40
46720;DHT22;32452;51.382;-0.002;2023-04-25T10:00:57;16.60;45.70
46720;DHT22;32452;51.382;-0.002;2023-04-25T10:03:46;17.20;45.00
46720;DHT22;32452;51.382;-0.002;2023-04-25T10:06:35;17.10;44.60
46720;DHT22;32452;51.382;-0.002;2023-04-25T10:09:25;16.90;44.90
46720;DHT22;32452;51.382;-0.002;2023-04-25T10:12:11;16.90;44.60
46720;DHT22;32452;51.382;-0.002;2023-04-25T10:14:58;16.80;44.60
46720;DHT22;32452;51.382;-0.002;2023-04-25T10:17:44;16.50;44.30
46720;DHT22;32452;51.382;-0.002;2023-04-25T10:20:30;16.00;44.90
46720;DHT22;32452;51.382;-0.002;2023-04-25T10:23:17;16.00;45.90
46720;DHT22;32452;51.382;-0.002;2023-04-25T10:26:03;16.30;45.60
46720;DHT22;32452;51.382;-0.002;2023-04-25T10:28:59;16.10;45.40
46720;DHT22;32452;51.382;-0.002;2023-04-25T10:31:46;15.70;45.80
46720;DHT22;32452;51.382;-0.002;2023-04-25T10:34:43;15.30;46.30
46720;DHT22;32452;51.382;-0.002;2023-04-25T10:37:32;15.00;46.70
46720;DHT22;32452;51.382;-0.002;2023-04-25T10:40:22;14.90;47.10
46720;DHT22;32452;51.382;-0.002;2023-04-25T10:46:19;15.30;46.60
46720;DHT22;32452;51.382;-0.002;2023-04-25T10:49:08;15.10;46.30
46720;DHT22;32452;51.382;-0.002;2023-04-25T10:52:32;14.90;46.40
46720;DHT22;32452;51.382;-0.002;2023-04-25T10:55:20;14.70;47.00
46720;DHT22;32452;51.382;-0.002;2023-04-25T10:58:13;14.50;47.10
46720;DHT22;32452;51.382;-0.002;2023-04-25T11:01:02;14.40;47.50
46720;DHT22;32452;51.382;-0.002;2023-04-25T11:03:48;15.00;47.60
46720;DHT22;32452;51.382;-0.002;2023-04-25T11:09:53;16.70;46.00
46720;DHT22;32452;51.382;-0.002;2023-04-25T11:12:39;17.40;45.00
46720;DHT22;32452;51.382;-0.002;2023-04-25T11:15:25;17.40;43.80
46720;DHT22;32452;51.382;-0.002;2023-04-25T11:18:15;17.10;43.40
46720;DHT22;32452;51.382;-0.002;2023-04-25T11:21:02;16.70;43.30
46720;DHT22;32452;51.382;-0.002;2023-04-25T11:23:48;16.30;43.40
46720;DHT22;32452;51.382;-0.002;2023-04-25T11:26:34;16.10;43.50
46720;DHT22;32452;51.382;-0.002;2023-04-25T11:29:23;16.00;43.50
46720;DHT22;32452;51.382;-0.002;2023-04-25T11:32:08;15.70;43.70
46720;DHT22;32452;51.382;-0.002;2023-04-25T11:34:55;15.50;43.50
46720;DHT22;32452;51.382;-0.002;2023-04-25T11:37:41;15.30;43.70
46720;DHT22;32452;51.382;-0.002;2023-04-25T11:40:27;15.00;44.20
46720;DHT22;32452;51.382;-0.002;2023-04-25T11:43:12;15.00;44.30
46720;DHT22;32452;51.382;-0.002;2023-04-25T11:45:58;15.00;44.50
46720;DHT22;32452;51.382;-0.002;2023-04-25T11:48:44;14.90;44.90
46720;DHT22;32452;51.382;-0.002;2023-04-25T11:51:30;14.80;45.30
46720;DHT22;32452;51.382;-0.002;2023-04-25T11:54:25;15.20;45.80
46720;DHT22;32452;51.382;-0.002;2023-04-25T11:57:11;16.00;45.70
46720;DHT22;32452;51.382;-0.002;2023-04-25T12:00:09;16.40;44.20
46720;DHT22;32452;51.382;-0.002;2023-04-25T12:03:03;16.40;43.10
46720;DHT22;32452;51.382;-0.002;2023-04-25T12:05:50;16.10;42.90
46720;DHT22;32452;51.382;-0.002;2023-04-25T12:08:36;16.00;43.20
46720;DHT22;32452;51.382;-0.002;2023-04-25T12:11:22;16.10;43.30
46720;DHT22;32452;51.382;-0.002;2023-04-25T12:14:07;16.20;42.90
46720;DHT22;32452;51.382;-0.002;2023-04-25T12:16:56;16.20;42.50
46720;DHT22;32452;51.382;-0.002;2023-04-25T12:19:43;16.00;42.50
46720;DHT22;32452;51.382;-0.002;2023-04-25T12:22:29;15.80;42.40
46720;DHT22;32452;51.382;-0.002;2023-04-25T12:25:39;15.50;42.60
46720;DHT22;32452;51.382;-0.002;2023-04-25T12:28:25;15.50;43.20
46720;DHT22;32452;51.382;-0.002;2023-04-25T12:31:13;15.80;43.50
46720;DHT22;32452;51.382;-0.002;2023-04-25T12:34:00;16.10;43.00
46720;DHT22;32452;51.382;-0.002;2023-04-25T12:36:46;16.50;42.80
46720;DHT22;32452;51.382;-0.002;2023-04-25T12:39:31;16.60;42.20
46720;DHT22;32452;51.382;-0.002;2023-04-25T12:42:17;16.50;41.70
46720;DHT22;32452;51.382;-0.002;2023-04-25T12:45:03;16.30;41.40
46720;DHT22;32452;51.382;-0.002;2023-04-25T12:47:48;16.00;41.20
46720;DHT22;32452;51.382;-0.002;2023-04-25T12:50:34;15.80;41.30
46720;DHT22;32452;51.382;-0.002;2023-04-25T12:53:21;15.50;41.80
46720;DHT22;32452;51.382;-0.002;2023-04-25T12:56:08;15.20;42.40
46720;DHT22;32452;51.382;-0.002;2023-04-25T12:58:54;15.10;43.20
46720;DHT22;32452;51.382;-0.002;2023-04-25T13:01:39;15.10;43.40
46720;DHT22;32452;51.382;-0.002;2023-04-25T13:04:25;15.00;43.50
46720;DHT22;32452;51.382;-0.002;2023-04-25T13:07:10;15.00;43.40
46720;DHT22;32452;51.382;-0.002;2023-04-25T13:09:56;15.00;43.40
46720;DHT22;32452;51.382;-0.002;2023-04-25T13:12:41;14.90;43.10
46720;DHT22;32452;51.382;-0.002;2023-04-25T13:15:27;14.90;43.00
46720;DHT22;32452;51.382;-0.002;2023-04-25T13:18:12;14.90;42.80
46720;DHT22;32452;51.382;-0.002;2023-04-25T13:20:58;14.90;42.70
46720;DHT22;32452;51.382;-0.002;2023-04-25T13:23:45;14.90;42.90
46720;DHT22;32452;51.382;-0.002;2023-04-25T13:26:32;14.80;42.90
46720;DHT22;32452;51.382;-0.002;2023-04-25T13:29:17;14.80;43.80
46720;DHT22;32452;51.382;-0.002;2023-04-25T13:32:03;14.90;43.40
46720;DHT22;32452;51.382;-0.002;2023-04-25T13:34:50;15.10;43.30
46720;DHT22;32452;51.382;-0.002;2023-04-25T13:37:36;15.30;43.20
46720;DHT22;32452;51.382;-0.002;2023-04-25T13:40:22;15.40;43.30
46720;DHT22;32452;51.382;-0.002;2023-04-25T13:43:09;15.50;42.90
46720;DHT22;32452;51.382;-0.002;2023-04-25T13:45:55;15.40;42.70
46720;DHT22;32452;51.382;-0.002;2023-04-25T13:48:41;15.30;42.60
46720;DHT22;32452;51.382;-0.002;2023-04-25T13:51:32;15.30;42.70
46720;DHT22;32452;51.382;-0.002;2023-04-25T13:54:17;15.20;42.90
46720;DHT22;32452;51.382;-0.002;2023-04-25T13:57:03;15.10;43.30
46720;DHT22;32452;51.382;-0.002;2023-04-25T13:59:48;15.20;43.20
46720;DHT22;32452;51.382;-0.002;2023-04-25T14:02:38;15.30;42.70
46720;DHT22;32452;51.382;-0.002;2023-04-25T14:05:23;15.20;42.10
46720;DHT22;32452;51.382;-0.002;2023-04-25T14:08:09;14.80;43.00
46720;DHT22;32452;51.382;-0.002;2023-04-25T14:10:55;14.60;42.40
46720;DHT22;32452;51.382;-0.002;2023-04-25T14:13:41;14.40;42.50
46720;DHT22;32452;51.382;-0.002;2023-04-25T14:16:26;14.30;43.20
46720;DHT22;32452;51.382;-0.002;2023-04-25T14:19:12;14.30;43.70
46720;DHT22;32452;51.382;-0.002;2023-04-25T14:21:58;14.30;43.60
46720;DHT22;32452;51.382;-0.002;2023-04-25T14:24:43;14.30;43.50
46720;DHT22;32452;51.382;-0.002;2023-04-25T14:27:29;14.30;43.30
46720;DHT22;32452;51.382;-0.002;2023-04-25T14:30:15;14.30;43.50
46720;DHT22;32452;51.382;-0.002;2023-04-25T14:33:00;14.40;43.90
46720;DHT22;32452;51.382;-0.002;2023-04-25T14:35:46;14.70;44.00
46720;DHT22;32452;51.382;-0.002;2023-04-25T14:38:32;14.90;43.60
46720;DHT22;32452;51.382;-0.002;2023-04-25T14:41:18;14.90;43.10
46720;DHT22;32452;51.382;-0.002;2023-04-25T14:44:03;14.80;43.20
46720;DHT22;32452;51.382;-0.002;2023-04-25T14:46:49;14.80;43.20
46720;DHT22;32452;51.382;-0.002;2023-04-25T14:49:37;14.70;43.30
46720;DHT22;32452;51.382;-0.002;2023-04-25T14:52:22;14.60;43.20
46720;DHT22;32452;51.382;-0.002;2023-04-25T14:55:11;14.40;43.40
46720;DHT22;32452;51.382;-0.002;2023-04-25T14:57:59;14.40;43.50
46720;DHT22;32452;51.382;-0.002;2023-04-25T15:00:46;14.20;44.10
46720;DHT22;32452;51.382;-0.002;2023-04-25T15:03:32;14.00;43.80
46720;DHT22;32452;51.382;-0.002;2023-04-25T15:06:18;13.90;44.10
46720;DHT22;32452;51.382;-0.002;2023-04-25T15:09:04;13.90;44.20
46720;DHT22;32452;51.382;-0.002;2023-04-25T15:11:50;14.00;44.50
46720;DHT22;32452;51.382;-0.002;2023-04-25T15:14:36;14.10;44.70
46720;DHT22;32452;51.382;-0.002;2023-04-25T15:17:21;14.10;44.60
46720;DHT22;32452;51.382;-0.002;2023-04-25T15:20:09;14.10;44.30
46720;DHT22;32452;51.382;-0.002;2023-04-25T15:22:55;14.20;44.00
46720;DHT22;32452;51.382;-0.002;2023-04-25T15:25:42;14.10;43.80
46720;DHT22;32452;51.382;-0.002;2023-04-25T15:28:27;14.00;43.90
46720;DHT22;32452;51.382;-0.002;2023-04-25T15:31:18;13.80;44.00
46720;DHT22;32452;51.382;-0.002;2023-04-25T15:34:12;13.70;44.30
46720;DHT22;32452;51.382;-0.002;2023-04-25T15:37:10;13.80;44.60
46720;DHT22;32452;51.382;-0.002;2023-04-25T15:40:12;13.90;44.50
46720;DHT22;32452;51.382;-0.002;2023-04-25T15:42:59;13.80;44.20
46720;DHT22;32452;51.382;-0.002;2023-04-25T15:45:53;13.90;44.20
46720;DHT22;32452;51.382;-0.002;2023-04-25T15:48:40;13.90;44.20
46720;DHT22;32452;51.382;-0.002;2023-04-25T15:51:31;14.00;44.10
46720;DHT22;32452;51.382;-0.002;2023-04-25T15:54:18;14.00;44.30
46720;DHT22;32452;51.382;-0.002;2023-04-25T15:57:05;14.00;44.50
46720;DHT22;32452;51.382;-0.002;2023-04-25T16:00:05;14.00;44.30
46720;DHT22;32452;51.382;-0.002;2023-04-25T16:03:04;13.90;43.80
46720;DHT22;32452;51.382;-0.002;2023-04-25T16:05:50;13.70;43.60
46720;DHT22;32452;51.382;-0.002;2023-04-25T16:08:36;13.50;43.60
46720;DHT22;32452;51.382;-0.002;2023-04-25T16:11:35;13.40;43.70
46720;DHT22;32452;51.382;-0.002;2023-04-25T16:14:30;13.30;43.80
46720;DHT22;32452;51.382;-0.002;2023-04-25T16:17:20;13.20;43.90
46720;DHT22;32452;51.382;-0.002;2023-04-25T16:20:06;13.20;44.30
46720;DHT22;32452;51.382;-0.002;2023-04-25T16:23:04;13.20;44.30
46720;DHT22;32452;51.382;-0.002;2023-04-25T16:25:54;13.10;44.10
46720;DHT22;32452;51.382;-0.002;2023-04-25T16:28:42;13.10;44.10
46720;DHT22;32452;51.382;-0.002;2023-04-25T16:31:40;13.00;44.20
46720;DHT22;32452;51.382;-0.002;2023-04-25T16:34:42;13.00;44.30
46720;DHT22;32452;51.382;-0.002;2023-04-25T16:37:37;13.00;44.50
46720;DHT22;32452;51.382;-0.002;2023-04-25T16:40:33;12.90;44.70
46720;DHT22;32452;51.382;-0.002;2023-04-25T16:43:22;12.90;45.00
46720;DHT22;32452;51.382;-0.002;2023-04-25T16:46:21;12.90;44.80
46720;DHT22;32452;51.382;-0.002;2023-04-25T16:49:20;12.80;44.90
46720;DHT22;32452;51.382;-0.002;2023-04-25T16:52:22;12.80;45.10
46720;DHT22;32452;51.382;-0.002;2023-04-25T16:55:18;12.80;45.10
46720;DHT22;32452;51.382;-0.002;2023-04-25T16:58:43;12.80;45.00
46720;DHT22;32452;51.382;-0.002;2023-04-25T17:01:32;12.80;45.00
46720;DHT22;32452;51.382;-0.002;2023-04-25T17:04:30;12.80;44.90
46720;DHT22;32452;51.382;-0.002;2023-04-25T17:07:40;12.80;44.80
46720;DHT22;32452;51.382;-0.002;2023-04-25T17:11:05;12.80;44.80
46720;DHT22;32452;51.382;-0.002;2023-04-25T17:14:07;12.70;44.70
46720;DHT22;32452;51.382;-0.002;2023-04-25T17:17:04;12.60;44.90
46720;DHT22;32452;51.382;-0.002;2023-04-25T17:19:52;12.60;44.90
46720;DHT22;32452;51.382;-0.002;2023-04-25T17:22:48;12.60;44.90
46720;DHT22;32452;51.382;-0.002;2023-04-25T17:29:16;12.40;45.00
46720;DHT22;32452;51.382;-0.002;2023-04-25T17:32:17;12.30;45.30
46720;DHT22;32452;51.382;-0.002;2023-04-25T17:35:18;12.30;45.40
46720;DHT22;32452;51.382;-0.002;2023-04-25T17:38:04;12.40;45.60
46720;DHT22;32452;51.382;-0.002;2023-04-25T17:40:50;12.30;45.40
46720;DHT22;32452;51.382;-0.002;2023-04-25T17:43:36;12.30;45.10